sensor_id;sensor_type;location;lat;lon;timestamp;temperature;humidity
76996;DHT22;65929;49.062;10.338;2023-03-14T00:00:39;7.40;93.50
76996;DHT22;65929;49.062;10.338;2023-03-14T00:01:40;7.40;93.50
76996;DHT22;65929;49.062;10.338;2023-03-14T00:02:41;7.40;93.40
76996;DHT22;65929;49.062;10.338;2023-03-14T00:03:42;7.40;93.30
76996;DHT22;65929;49.062;10.338;2023-03-14T00:04:43;7.40;93.30
76996;DHT22;65929;49.062;10.338;2023-03-14T00:05:46;7.40;93.20
76996;DHT22;65929;49.062;10.338;2023-03-14T00:06:47;7.50;93.20
76996;DHT22;65929;49.062;10.338;2023-03-14T00:07:48;7.50;93.10
76996;DHT22;65929;49.062;10.338;2023-03-14T00:08:49;7.50;93.00
76996;DHT22;65929;49.062;10.338;2023-03-14T00:09:52;7.50;92.90
76996;DHT22;65929;49.062;10.338;2023-03-14T00:10:52;7.50;92.90
76996;DHT22;65929;49.062;10.338;2023-03-14T00:11:54;7.50;92.90
76996;DHT22;65929;49.062;10.338;2023-03-14T00:12:54;7.50;92.90
76996;DHT22;65929;49.062;10.338;2023-03-14T00:13:56;7.50;92.90
76996;DHT22;65929;49.062;10.338;2023-03-14T00:14:57;7.50;92.80
76996;DHT22;65929;49.062;10.338;2023-03-14T00:16:02;7.50;92.70
76996;DHT22;65929;49.062;10.338;2023-03-14T00:17:03;7.50;92.70
76996;DHT22;65929;49.062;10.338;2023-03-14T00:18:04;7.50;92.60
76996;DHT22;65929;49.062;10.338;2023-03-14T00:19:05;7.50;92.60
76996;DHT22;65929;49.062;10.338;2023-03-14T00:20:07;7.50;92.60
76996;DHT22;65929;49.062;10.338;2023-03-14T00:21:11;7.50;92.30
76996;DHT22;65929;49.062;10.338;2023-03-14T00:22:12;7.50;92.20
76996;DHT22;65929;49.062;10.338;2023-03-14T00:23:13;7.60;92.10
76996;DHT22;65929;49.062;10.338;2023-03-14T00:24:14;7.60;91.90
76996;DHT22;65929;49.062;10.338;2023-03-14T00:25:15;7.80;91.30
76996;DHT22;65929;49.062;10.338;2023-03-14T00:26:17;7.80;91.20
76996;DHT22;65929;49.062;10.338;2023-03-14T00:27:18;7.80;91.20
76996;DHT22;65929;49.062;10.338;2023-03-14T00:28:19;7.80;91.20
76996;DHT22;65929;49.062;10.338;2023-03-14T00:29:20;7.80;91.30
76996;DHT22;65929;49.062;10.338;2023-03-14T00:30:21;7.80;91.60
76996;DHT22;65929;49.062;10.338;2023-03-14T00:31:22;7.70;91.70
76996;DHT22;65929;49.062;10.338;2023-03-14T00:32:23;7.80;91.70
76996;DHT22;65929;49.062;10.338;2023-03-14T00:33:24;7.80;91.90
76996;DHT22;65929;49.062;10.338;2023-03-14T00:34:28;7.80;92.10
76996;DHT22;65929;49.062;10.338;2023-03-14T00:35:29;7.80;92.00
76996;DHT22;65929;49.062;10.338;2023-03-14T00:36:32;7.80;92.00
76996;DHT22;65929;49.062;10.338;2023-03-14T00:37:33;7.80;91.90
76996;DHT22;65929;49.062;10.338;2023-03-14T00:38:34;7.80;91.90
76996;DHT22;65929;49.062;10.338;2023-03-14T00:39:35;7.80;92.10
76996;DHT22;65929;49.062;10.338;2023-03-14T00:40:39;7.80;91.90
76996;DHT22;65929;49.062;10.338;2023-03-14T00:41:40;7.80;91.70
76996;DHT22;65929;49.062;10.338;2023-03-14T00:42:41;7.80;91.70
76996;DHT22;65929;49.062;10.338;2023-03-14T00:43:42;7.90;91.60
76996;DHT22;65929;49.062;10.338;2023-03-14T00:44:43;7.90;91.60
76996;DHT22;65929;49.062;10.338;2023-03-14T00:45:44;7.90;91.50
76996;DHT22;65929;49.062;10.338;2023-03-14T00:46:45;7.90;91.40
76996;DHT22;65929;49.062;10.338;2023-03-14T00:47:46;8.00;91.20
76996;DHT22;65929;49.062;10.338;2023-03-14T00:48:47;8.00;91.10
76996;DHT22;65929;49.062;10.338;2023-03-14T00:49:48;8.00;91.20
76996;DHT22;65929;49.062;10.338;2023-03-14T00:50:49;8.00;91.00
76996;DHT22;65929;49.062;10.338;2023-03-14T00:51:51;8.00;91.10
76996;DHT22;65929;49.062;10.338;2023-03-14T00:52:52;8.00;91.10
76996;DHT22;65929;49.062;10.338;2023-03-14T00:53:53;8.00;91.10
76996;DHT22;65929;49.062;10.338;2023-03-14T00:54:54;7.90;91.20
76996;DHT22;65929;49.062;10.338;2023-03-14T00:55:55;7.90;91.20
76996;DHT22;65929;49.062;10.338;2023-03-14T00:56:55;7.90;91.50
76996;DHT22;65929;49.062;10.338;2023-03-14T00:57:56;7.90;91.40
76996;DHT22;65929;49.062;10.338;2023-03-14T00:58:57;7.90;91.30
76996;DHT22;65929;49.062;10.338;2023-03-14T00:59:58;8.00;91.30
76996;DHT22;65929;49.062;10.338;2023-03-14T01:01:02;8.00;91.20
76996;DHT22;65929;49.062;10.338;2023-03-14T01:02:05;8.00;91.00
76996;DHT22;65929;49.062;10.338;2023-03-14T01:03:06;8.00;91.10
76996;DHT22;65929;49.062;10.338;2023-03-14T01:04:08;7.90;91.30
76996;DHT22;65929;49.062;10.338;2023-03-14T01:05:08;8.00;91.20
76996;DHT22;65929;49.062;10.338;2023-03-14T01:06:12;7.90;91.30
76996;DHT22;65929;49.062;10.338;2023-03-14T01:07:15;7.90;91.40
76996;DHT22;65929;49.062;10.338;2023-03-14T01:08:16;7.80;91.40
76996;DHT22;65929;49.062;10.338;2023-03-14T01:09:17;7.80;91.40
76996;DHT22;65929;49.062;10.338;2023-03-14T01:10:18;7.80;91.50
76996;DHT22;65929;49.062;10.338;2023-03-14T01:11:21;7.80;91.70
76996;DHT22;65929;49.062;10.338;2023-03-14T01:12:23;7.80;91.40
76996;DHT22;65929;49.062;10.338;2023-03-14T01:13:24;7.80;91.50
76996;DHT22;65929;49.062;10.338;2023-03-14T01:14:25;7.80;91.70
76996;DHT22;65929;49.062;10.338;2023-03-14T01:15:26;7.80;91.80
76996;DHT22;65929;49.062;10.338;2023-03-14T01:16:28;7.80;91.50
76996;DHT22;65929;49.062;10.338;2023-03-14T01:17:30;7.80;91.50
76996;DHT22;65929;49.062;10.338;2023-03-14T01:18:31;7.80;91.40
76996;DHT22;65929;49.062;10.338;2023-03-14T01:19:32;7.80;91.40
76996;DHT22;65929;49.062;10.338;2023-03-14T01:20:33;7.80;91.50
76996;DHT22;65929;49.062;10.338;2023-03-14T01:21:35;7.80;91.60
76996;DHT22;65929;49.062;10.338;2023-03-14T01:22:38;7.80;91.60
76996;DHT22;65929;49.062;10.338;2023-03-14T01:23:40;7.80;91.80
76996;DHT22;65929;49.062;10.338;2023-03-14T01:24:41;7.80;91.90
76996;DHT22;65929;49.062;10.338;2023-03-14T01:25:42;7.80;91.90
76996;DHT22;65929;49.062;10.338;2023-03-14T01:26:43;7.80;91.90
76996;DHT22;65929;49.062;10.338;2023-03-14T01:27:44;7.80;91.90
76996;DHT22;65929;49.062;10.338;2023-03-14T01:28:46;7.80;91.80
76996;DHT22;65929;49.062;10.338;2023-03-14T01:29:47;7.80;91.90
76996;DHT22;65929;49.062;10.338;2023-03-14T01:30:48;7.70;92.00
76996;DHT22;65929;49.062;10.338;2023-03-14T01:31:49;7.70;92.00
76996;DHT22;65929;49.062;10.338;2023-03-14T01:32:50;7.70;91.90
76996;DHT22;65929;49.062;10.338;2023-03-14T01:33:51;7.70;91.80
76996;DHT22;65929;49.062;10.338;2023-03-14T01:34:52;7.70;91.70
76996;DHT22;65929;49.062;10.338;2023-03-14T01:35:53;7.70;91.80
76996;DHT22;65929;49.062;10.338;2023-03-14T01:36:54;7.80;91.70
76996;DHT22;65929;49.062;10.338;2023-03-14T01:37:56;7.80;91.70
76996;DHT22;65929;49.062;10.338;2023-03-14T01:38:57;7.80;91.60
76996;DHT22;65929;49.062;10.338;2023-03-14T01:39:58;7.80;91.50
76996;DHT22;65929;49.062;10.338;2023-03-14T01:41:00;7.80;91.50
76996;DHT22;65929;49.062;10.338;2023-03-14T01:42:00;7.80;91.50
76996;DHT22;65929;49.062;10.338;2023-03-14T01:43:12;7.80;91.40
76996;DHT22;65929;49.062;10.338;2023-03-14T01:44:13;7.80;91.10
76996;DHT22;65929;49.062;10.338;2023-03-14T01:47:07;7.80;91.00
76996;DHT22;65929;49.062;10.338;2023-03-14T01:48:08;7.80;90.80
76996;DHT22;65929;49.062;10.338;2023-03-14T01:49:17;7.80;90.60
76996;DHT22;65929;49.062;10.338;2023-03-14T01:50:19;7.80;90.60
76996;DHT22;65929;49.062;10.338;2023-03-14T01:51:23;7.80;90.70
76996;DHT22;65929;49.062;10.338;2023-03-14T01:52:29;7.80;91.00
76996;DHT22;65929;49.062;10.338;2023-03-14T01:53:35;7.70;91.10
76996;DHT22;65929;49.062;10.338;2023-03-14T01:54:40;7.70;91.10
76996;DHT22;65929;49.062;10.338;2023-03-14T01:55:42;7.70;91.10
76996;DHT22;65929;49.062;10.338;2023-03-14T01:56:46;7.70;91.00
76996;DHT22;65929;49.062;10.338;2023-03-14T01:57:50;7.70;90.90
76996;DHT22;65929;49.062;10.338;2023-03-14T01:58:53;7.60;91.00
76996;DHT22;65929;49.062;10.338;2023-03-14T01:59:55;7.60;91.10
76996;DHT22;65929;49.062;10.338;2023-03-14T02:00:58;7.60;91.00
76996;DHT22;65929;49.062;10.338;2023-03-14T02:02:00;7.60;91.00
76996;DHT22;65929;49.062;10.338;2023-03-14T02:03:05;7.60;91.00
76996;DHT22;65929;49.062;10.338;2023-03-14T02:04:07;7.50;91.10
76996;DHT22;65929;49.062;10.338;2023-03-14T02:05:09;7.50;91.20
76996;DHT22;65929;49.062;10.338;2023-03-14T02:06:11;7.50;91.20
76996;DHT22;65929;49.062;10.338;2023-03-14T02:07:16;7.50;91.30
76996;DHT22;65929;49.062;10.338;2023-03-14T02:08:19;7.50;91.30
76996;DHT22;65929;49.062;10.338;2023-03-14T02:09:22;7.40;91.50
76996;DHT22;65929;49.062;10.338;2023-03-14T02:10:25;7.40;91.50
76996;DHT22;65929;49.062;10.338;2023-03-14T02:11:29;7.40;91.50
76996;DHT22;65929;49.062;10.338;2023-03-14T02:12:30;7.40;91.50
76996;DHT22;65929;49.062;10.338;2023-03-14T02:13:32;7.40;91.50
76996;DHT22;65929;49.062;10.338;2023-03-14T02:14:34;7.40;91.50
76996;DHT22;65929;49.062;10.338;2023-03-14T02:15:36;7.40;91.60
76996;DHT22;65929;49.062;10.338;2023-03-14T02:16:37;7.40;91.50
76996;DHT22;65929;49.062;10.338;2023-03-14T02:17:38;7.40;91.50
76996;DHT22;65929;49.062;10.338;2023-03-14T02:18:41;7.40;91.50
76996;DHT22;65929;49.062;10.338;2023-03-14T02:19:55;7.40;91.40
76996;DHT22;65929;49.062;10.338;2023-03-14T02:21:04;7.40;91.30
76996;DHT22;65929;49.062;10.338;2023-03-14T02:22:09;7.40;91.20
76996;DHT22;65929;49.062;10.338;2023-03-14T02:23:11;7.40;91.20
76996;DHT22;65929;49.062;10.338;2023-03-14T02:24:17;7.40;91.10
76996;DHT22;65929;49.062;10.338;2023-03-14T02:25:27;7.40;91.00
76996;DHT22;65929;49.062;10.338;2023-03-14T02:26:36;7.30;91.00
76996;DHT22;65929;49.062;10.338;2023-03-14T02:27:39;7.30;91.00
76996;DHT22;65929;49.062;10.338;2023-03-14T02:28:40;7.30;91.00
76996;DHT22;65929;49.062;10.338;2023-03-14T02:29:47;7.30;90.90
76996;DHT22;65929;49.062;10.338;2023-03-14T02:30:49;7.30;90.90
76996;DHT22;65929;49.062;10.338;2023-03-14T02:31:50;7.20;90.90
76996;DHT22;65929;49.062;10.338;2023-03-14T02:32:54;7.20;90.90
76996;DHT22;65929;49.062;10.338;2023-03-14T02:33:56;7.20;90.90
76996;DHT22;65929;49.062;10.338;2023-03-14T02:35:00;7.20;90.80
76996;DHT22;65929;49.062;10.338;2023-03-14T02:36:05;7.30;90.60
76996;DHT22;65929;49.062;10.338;2023-03-14T02:37:07;7.30;90.60
76996;DHT22;65929;49.062;10.338;2023-03-14T02:38:15;7.30;90.40
76996;DHT22;65929;49.062;10.338;2023-03-14T02:39:21;7.30;90.20
76996;DHT22;65929;49.062;10.338;2023-03-14T02:40:24;7.40;89.80
76996;DHT22;65929;49.062;10.338;2023-03-14T02:41:24;7.40;89.50
76996;DHT22;65929;49.062;10.338;2023-03-14T02:42:25;7.40;89.70
76996;DHT22;65929;49.062;10.338;2023-03-14T02:43:28;7.40;89.70
76996;DHT22;65929;49.062;10.338;2023-03-14T02:44:29;7.30;89.80
76996;DHT22;65929;49.062;10.338;2023-03-14T02:45:39;7.20;89.90
76996;DHT22;65929;49.062;10.338;2023-03-14T02:46:40;7.20;90.00
76996;DHT22;65929;49.062;10.338;2023-03-14T02:47:44;7.20;90.10
76996;DHT22;65929;49.062;10.338;2023-03-14T02:48:50;7.20;90.10
76996;DHT22;65929;49.062;10.338;2023-03-14T02:49:57;7.20;90.00
76996;DHT22;65929;49.062;10.338;2023-03-14T02:51:00;7.20;90.00
76996;DHT22;65929;49.062;10.338;2023-03-14T02:52:01;7.20;90.00
76996;DHT22;65929;49.062;10.338;2023-03-14T02:53:02;7.20;90.00
76996;DHT22;65929;49.062;10.338;2023-03-14T02:54:03;7.20;90.00
76996;DHT22;65929;49.062;10.338;2023-03-14T02:55:05;7.20;90.00
76996;DHT22;65929;49.062;10.338;2023-03-14T02:56:07;7.20;90.00
76996;DHT22;65929;49.062;10.338;2023-03-14T02:57:08;7.20;90.10
76996;DHT22;65929;49.062;10.338;2023-03-14T02:58:09;7.20;90.10
76996;DHT22;65929;49.062;10.338;2023-03-14T02:59:11;7.20;90.10
76996;DHT22;65929;49.062;10.338;2023-03-14T03:00:13;7.20;90.30
76996;DHT22;65929;49.062;10.338;2023-03-14T03:01:14;7.20;90.40
76996;DHT22;65929;49.062;10.338;2023-03-14T03:02:15;7.20;90.40
76996;DHT22;65929;49.062;10.338;2023-03-14T03:03:16;7.20;90.30
76996;DHT22;65929;49.062;10.338;2023-03-14T03:04:18;7.20;90.20
76996;DHT22;65929;49.062;10.338;2023-03-14T03:05:19;7.20;90.00
76996;DHT22;65929;49.062;10.338;2023-03-14T03:06:19;7.20;90.00
76996;DHT22;65929;49.062;10.338;2023-03-14T03:07:20;7.20;90.10
76996;DHT22;65929;49.062;10.338;2023-03-14T03:08:23;7.20;90.10
76996;DHT22;65929;49.062;10.338;2023-03-14T03:09:25;7.20;90.10
76996;DHT22;65929;49.062;10.338;2023-03-14T03:10:26;7.10;90.20
76996;DHT22;65929;49.062;10.338;2023-03-14T03:11:27;7.00;90.30
76996;DHT22;65929;49.062;10.338;2023-03-14T03:12:28;7.10;90.30
76996;DHT22;65929;49.062;10.338;2023-03-14T03:13:29;7.00;90.30
76996;DHT22;65929;49.062;10.338;2023-03-14T03:14:31;7.10;90.20
76996;DHT22;65929;49.062;10.338;2023-03-14T03:15:32;7.00;90.20
76996;DHT22;65929;49.062;10.338;2023-03-14T03:16:33;7.00;90.20
76996;DHT22;65929;49.062;10.338;2023-03-14T03:17:34;7.00;90.30
76996;DHT22;65929;49.062;10.338;2023-03-14T03:18:35;7.00;90.30
76996;DHT22;65929;49.062;10.338;2023-03-14T03:19:36;7.00;90.20
76996;DHT22;65929;49.062;10.338;2023-03-14T03:20:37;7.00;90.20
76996;DHT22;65929;49.062;10.338;2023-03-14T03:21:38;7.00;90.20
76996;DHT22;65929;49.062;10.338;2023-03-14T03:22:39;7.00;90.10
76996;DHT22;65929;49.062;10.338;2023-03-14T03:23:40;7.00;90.10
76996;DHT22;65929;49.062;10.338;2023-03-14T03:24:41;7.00;90.20
76996;DHT22;65929;49.062;10.338;2023-03-14T03:25:42;7.00;90.20
76996;DHT22;65929;49.062;10.338;2023-03-14T03:26:43;7.00;90.30
76996;DHT22;65929;49.062;10.338;2023-03-14T03:27:43;7.00;90.30
76996;DHT22;65929;49.062;10.338;2023-03-14T03:28:44;7.00;90.20
76996;DHT22;65929;49.062;10.338;2023-03-14T03:29:47;7.00;90.20
76996;DHT22;65929;49.062;10.338;2023-03-14T03:30:48;7.00;90.20
76996;DHT22;65929;49.062;10.338;2023-03-14T03:31:49;7.00;90.10
76996;DHT22;65929;49.062;10.338;2023-03-14T03:32:49;7.00;90.00
76996;DHT22;65929;49.062;10.338;2023-03-14T03:33:50;7.00;89.90
76996;DHT22;65929;49.062;10.338;2023-03-14T03:34:51;7.00;89.90
76996;DHT22;65929;49.062;10.338;2023-03-14T03:35:52;7.00;89.90
76996;DHT22;65929;49.062;10.338;2023-03-14T03:36:56;7.00;89.90
76996;DHT22;65929;49.062;10.338;2023-03-14T03:37:56;7.00;89.70
76996;DHT22;65929;49.062;10.338;2023-03-14T03:38:57;7.00;89.70
76996;DHT22;65929;49.062;10.338;2023-03-14T03:39:58;7.00;89.80
76996;DHT22;65929;49.062;10.338;2023-03-14T03:41:02;7.00;89.80
76996;DHT22;65929;49.062;10.338;2023-03-14T03:42:04;7.00;89.90
76996;DHT22;65929;49.062;10.338;2023-03-14T03:43:05;7.00;90.00
76996;DHT22;65929;49.062;10.338;2023-03-14T03:44:06;7.00;90.10
76996;DHT22;65929;49.062;10.338;2023-03-14T03:45:09;6.90;90.20
76996;DHT22;65929;49.062;10.338;2023-03-14T03:46:10;6.90;90.20
76996;DHT22;65929;49.062;10.338;2023-03-14T03:47:11;6.90;90.10
76996;DHT22;65929;49.062;10.338;2023-03-14T03:48:12;7.00;90.00
76996;DHT22;65929;49.062;10.338;2023-03-14T03:49:13;7.00;90.00
76996;DHT22;65929;49.062;10.338;2023-03-14T03:50:13;7.00;89.80
76996;DHT22;65929;49.062;10.338;2023-03-14T03:51:15;7.00;89.80
76996;DHT22;65929;49.062;10.338;2023-03-14T03:52:17;7.00;89.60
76996;DHT22;65929;49.062;10.338;2023-03-14T03:53:18;7.00;89.60
76996;DHT22;65929;49.062;10.338;2023-03-14T03:54:19;7.10;89.40
76996;DHT22;65929;49.062;10.338;2023-03-14T03:55:20;7.10;89.50
76996;DHT22;65929;49.062;10.338;2023-03-14T03:56:21;7.10;89.30
76996;DHT22;65929;49.062;10.338;2023-03-14T03:57:21;7.20;89.00
76996;DHT22;65929;49.062;10.338;2023-03-14T03:58:22;7.20;89.00
76996;DHT22;65929;49.062;10.338;2023-03-14T03:59:24;7.20;89.00
76996;DHT22;65929;49.062;10.338;2023-03-14T04:00:26;7.20;89.00
76996;DHT22;65929;49.062;10.338;2023-03-14T04:01:27;7.20;88.90
76996;DHT22;65929;49.062;10.338;2023-03-14T04:02:28;7.20;88.90
76996;DHT22;65929;49.062;10.338;2023-03-14T04:03:29;7.20;89.00
76996;DHT22;65929;49.062;10.338;2023-03-14T04:04:30;7.20;88.80
76996;DHT22;65929;49.062;10.338;2023-03-14T04:05:31;7.20;88.90
76996;DHT22;65929;49.062;10.338;2023-03-14T04:06:32;7.20;88.70
76996;DHT22;65929;49.062;10.338;2023-03-14T04:07:32;7.20;88.70
76996;DHT22;65929;49.062;10.338;2023-03-14T04:08:34;7.20;88.70
76996;DHT22;65929;49.062;10.338;2023-03-14T04:09:34;7.20;88.70
76996;DHT22;65929;49.062;10.338;2023-03-14T04:10:35;7.20;88.60
76996;DHT22;65929;49.062;10.338;2023-03-14T04:11:37;7.30;88.60
76996;DHT22;65929;49.062;10.338;2023-03-14T04:12:38;7.20;88.60
76996;DHT22;65929;49.062;10.338;2023-03-14T04:13:39;7.20;88.60
76996;DHT22;65929;49.062;10.338;2023-03-14T04:14:40;7.20;88.60
76996;DHT22;65929;49.062;10.338;2023-03-14T04:15:43;7.30;88.40
76996;DHT22;65929;49.062;10.338;2023-03-14T04:16:44;7.30;88.60
76996;DHT22;65929;49.062;10.338;2023-03-14T04:17:45;7.20;88.50
76996;DHT22;65929;49.062;10.338;2023-03-14T04:18:46;7.30;88.30
76996;DHT22;65929;49.062;10.338;2023-03-14T04:19:47;7.30;88.40
76996;DHT22;65929;49.062;10.338;2023-03-14T04:20:51;7.30;88.10
76996;DHT22;65929;49.062;10.338;2023-03-14T04:21:52;7.30;88.30
76996;DHT22;65929;49.062;10.338;2023-03-14T04:22:53;7.20;88.40
76996;DHT22;65929;49.062;10.338;2023-03-14T04:23:54;7.20;88.20
76996;DHT22;65929;49.062;10.338;2023-03-14T04:24:55;7.40;87.80
76996;DHT22;65929;49.062;10.338;2023-03-14T04:25:55;7.40;87.90
76996;DHT22;65929;49.062;10.338;2023-03-14T04:26:56;7.30;88.00
76996;DHT22;65929;49.062;10.338;2023-03-14T04:27:58;7.30;87.80
76996;DHT22;65929;49.062;10.338;2023-03-14T04:28:59;7.30;87.70
76996;DHT22;65929;49.062;10.338;2023-03-14T04:30:00;7.30;87.70
76996;DHT22;65929;49.062;10.338;2023-03-14T04:31:08;7.40;87.50
76996;DHT22;65929;49.062;10.338;2023-03-14T04:32:09;7.40;87.40
76996;DHT22;65929;49.062;10.338;2023-03-14T04:33:10;7.40;87.20
76996;DHT22;65929;49.062;10.338;2023-03-14T04:34:13;7.50;86.70
76996;DHT22;65929;49.062;10.338;2023-03-14T04:35:14;7.50;87.00
76996;DHT22;65929;49.062;10.338;2023-03-14T04:36:15;7.50;86.70
76996;DHT22;65929;49.062;10.338;2023-03-14T04:37:16;7.50;86.80
76996;DHT22;65929;49.062;10.338;2023-03-14T04:38:17;7.50;86.90
76996;DHT22;65929;49.062;10.338;2023-03-14T04:39:18;7.50;86.40
76996;DHT22;65929;49.062;10.338;2023-03-14T04:40:18;7.50;86.80
76996;DHT22;65929;49.062;10.338;2023-03-14T04:41:19;7.50;86.90
76996;DHT22;65929;49.062;10.338;2023-03-14T04:42:20;7.40;87.10
76996;DHT22;65929;49.062;10.338;2023-03-14T04:43:21;7.40;87.30
76996;DHT22;65929;49.062;10.338;2023-03-14T04:44:22;7.40;87.40
76996;DHT22;65929;49.062;10.338;2023-03-14T04:45:23;7.40;87.20
76996;DHT22;65929;49.062;10.338;2023-03-14T04:46:25;7.50;86.90
76996;DHT22;65929;49.062;10.338;2023-03-14T04:47:26;7.50;86.70
76996;DHT22;65929;49.062;10.338;2023-03-14T04:48:28;7.50;86.70
76996;DHT22;65929;49.062;10.338;2023-03-14T04:49:29;7.50;86.80
76996;DHT22;65929;49.062;10.338;2023-03-14T04:50:30;7.50;86.90
76996;DHT22;65929;49.062;10.338;2023-03-14T04:51:31;7.40;86.90
76996;DHT22;65929;49.062;10.338;2023-03-14T04:52:31;7.40;87.00
76996;DHT22;65929;49.062;10.338;2023-03-14T04:53:32;7.40;87.20
76996;DHT22;65929;49.062;10.338;2023-03-14T04:54:34;7.40;87.10
76996;DHT22;65929;49.062;10.338;2023-03-14T04:55:35;7.40;87.20
76996;DHT22;65929;49.062;10.338;2023-03-14T04:56:36;7.30;87.30
76996;DHT22;65929;49.062;10.338;2023-03-14T04:57:37;7.30;87.30
76996;DHT22;65929;49.062;10.338;2023-03-14T04:58:38;7.30;87.40
76996;DHT22;65929;49.062;10.338;2023-03-14T04:59:39;7.30;87.10
76996;DHT22;65929;49.062;10.338;2023-03-14T05:00:40;7.40;87.10
76996;DHT22;65929;49.062;10.338;2023-03-14T05:01:42;7.40;86.80
76996;DHT22;65929;49.062;10.338;2023-03-14T05:02:44;7.40;87.00
76996;DHT22;65929;49.062;10.338;2023-03-14T05:03:45;7.30;87.10
76996;DHT22;65929;49.062;10.338;2023-03-14T05:04:45;7.30;87.30
76996;DHT22;65929;49.062;10.338;2023-03-14T05:05:46;7.30;87.10
76996;DHT22;65929;49.062;10.338;2023-03-14T05:06:47;7.30;87.00
76996;DHT22;65929;49.062;10.338;2023-03-14T05:07:48;7.40;86.90
76996;DHT22;65929;49.062;10.338;2023-03-14T05:08:49;7.30;86.90
76996;DHT22;65929;49.062;10.338;2023-03-14T05:09:50;7.40;86.90
76996;DHT22;65929;49.062;10.338;2023-03-14T05:10:52;7.30;86.90
76996;DHT22;65929;49.062;10.338;2023-03-14T05:11:54;7.30;86.90
76996;DHT22;65929;49.062;10.338;2023-03-14T05:12:55;7.30;85.70
76996;DHT22;65929;49.062;10.338;2023-03-14T05:13:56;7.40;86.10
76996;DHT22;65929;49.062;10.338;2023-03-14T05:14:57;7.40;86.10
76996;DHT22;65929;49.062;10.338;2023-03-14T05:16:04;7.30;86.50
76996;DHT22;65929;49.062;10.338;2023-03-14T05:17:06;7.20;86.70
76996;DHT22;65929;49.062;10.338;2023-03-14T05:18:08;7.20;86.40
76996;DHT22;65929;49.062;10.338;2023-03-14T05:19:10;7.20;86.50
76996;DHT22;65929;49.062;10.338;2023-03-14T05:20:11;7.20;86.30
76996;DHT22;65929;49.062;10.338;2023-03-14T05:21:13;7.30;85.50
76996;DHT22;65929;49.062;10.338;2023-03-14T05:22:14;7.40;85.60
76996;DHT22;65929;49.062;10.338;2023-03-14T05:23:15;7.40;85.30
76996;DHT22;65929;49.062;10.338;2023-03-14T05:24:16;7.40;85.30
76996;DHT22;65929;49.062;10.338;2023-03-14T05:25:17;7.40;85.50
76996;DHT22;65929;49.062;10.338;2023-03-14T05:26:18;7.30;85.70
76996;DHT22;65929;49.062;10.338;2023-03-14T05:27:19;7.30;85.90
76996;DHT22;65929;49.062;10.338;2023-03-14T05:28:20;7.20;85.90
76996;DHT22;65929;49.062;10.338;2023-03-14T05:29:21;7.20;85.70
76996;DHT22;65929;49.062;10.338;2023-03-14T05:30:22;7.20;86.10
76996;DHT22;65929;49.062;10.338;2023-03-14T05:31:23;7.20;86.10
76996;DHT22;65929;49.062;10.338;2023-03-14T05:32:25;7.20;86.20
76996;DHT22;65929;49.062;10.338;2023-03-14T05:33:26;7.20;86.00
76996;DHT22;65929;49.062;10.338;2023-03-14T05:34:27;7.20;86.20
76996;DHT22;65929;49.062;10.338;2023-03-14T05:35:28;7.20;86.30
76996;DHT22;65929;49.062;10.338;2023-03-14T05:36:29;7.10;86.40
76996;DHT22;65929;49.062;10.338;2023-03-14T05:37:30;7.20;86.00
76996;DHT22;65929;49.062;10.338;2023-03-14T05:38:31;7.20;86.00
76996;DHT22;65929;49.062;10.338;2023-03-14T05:39:32;7.20;85.60
76996;DHT22;65929;49.062;10.338;2023-03-14T05:40:33;7.20;85.50
76996;DHT22;65929;49.062;10.338;2023-03-14T05:41:34;7.20;85.00
76996;DHT22;65929;49.062;10.338;2023-03-14T05:42:36;7.20;85.00
76996;DHT22;65929;49.062;10.338;2023-03-14T05:43:37;7.20;85.30
76996;DHT22;65929;49.062;10.338;2023-03-14T05:44:38;7.20;85.00
76996;DHT22;65929;49.062;10.338;2023-03-14T05:45:39;7.20;84.70
76996;DHT22;65929;49.062;10.338;2023-03-14T05:46:41;7.30;85.00
76996;DHT22;65929;49.062;10.338;2023-03-14T05:47:43;7.30;84.80
76996;DHT22;65929;49.062;10.338;2023-03-14T05:48:44;7.20;85.10
76996;DHT22;65929;49.062;10.338;2023-03-14T05:49:45;7.20;85.20
76996;DHT22;65929;49.062;10.338;2023-03-14T05:50:45;7.20;85.10
76996;DHT22;65929;49.062;10.338;2023-03-14T05:51:46;7.20;84.80
76996;DHT22;65929;49.062;10.338;2023-03-14T05:52:47;7.20;84.10
76996;DHT22;65929;49.062;10.338;2023-03-14T05:53:48;7.20;84.40
76996;DHT22;65929;49.062;10.338;2023-03-14T05:54:49;7.20;84.50
76996;DHT22;65929;49.062;10.338;2023-03-14T05:55:51;7.20;84.50
76996;DHT22;65929;49.062;10.338;2023-03-14T05:56:53;7.20;84.00
76996;DHT22;65929;49.062;10.338;2023-03-14T05:57:54;7.30;84.00
76996;DHT22;65929;49.062;10.338;2023-03-14T05:58:55;7.20;83.80
76996;DHT22;65929;49.062;10.338;2023-03-14T05:59:56;7.20;84.00
76996;DHT22;65929;49.062;10.338;2023-03-14T06:00:57;7.30;83.50
76996;DHT22;65929;49.062;10.338;2023-03-14T06:01:57;7.40;83.30
76996;DHT22;65929;49.062;10.338;2023-03-14T06:03:00;7.40;82.70
76996;DHT22;65929;49.062;10.338;2023-03-14T06:04:01;7.40;83.20
76996;DHT22;65929;49.062;10.338;2023-03-14T06:05:01;7.30;83.50
76996;DHT22;65929;49.062;10.338;2023-03-14T06:06:03;7.30;83.50
76996;DHT22;65929;49.062;10.338;2023-03-14T06:07:04;7.30;83.40
76996;DHT22;65929;49.062;10.338;2023-03-14T06:08:05;7.30;82.50
76996;DHT22;65929;49.062;10.338;2023-03-14T06:09:06;7.40;82.80
76996;DHT22;65929;49.062;10.338;2023-03-14T06:10:07;7.40;82.60
76996;DHT22;65929;49.062;10.338;2023-03-14T06:11:08;7.40;82.60
76996;DHT22;65929;49.062;10.338;2023-03-14T06:12:09;7.40;83.20
76996;DHT22;65929;49.062;10.338;2023-03-14T06:13:10;7.30;83.60
76996;DHT22;65929;49.062;10.338;2023-03-14T06:14:11;7.20;83.20
76996;DHT22;65929;49.062;10.338;2023-03-14T06:15:12;7.20;83.50
76996;DHT22;65929;49.062;10.338;2023-03-14T06:16:13;7.20;83.60
76996;DHT22;65929;49.062;10.338;2023-03-14T06:17:15;7.20;83.70
76996;DHT22;65929;49.062;10.338;2023-03-14T06:18:17;7.20;83.40
76996;DHT22;65929;49.062;10.338;2023-03-14T06:19:18;7.20;83.30
76996;DHT22;65929;49.062;10.338;2023-03-14T06:20:19;7.20;82.80
76996;DHT22;65929;49.062;10.338;2023-03-14T06:21:20;7.20;83.20
76996;DHT22;65929;49.062;10.338;2023-03-14T06:22:21;7.20;83.40
76996;DHT22;65929;49.062;10.338;2023-03-14T06:23:22;7.20;82.80
76996;DHT22;65929;49.062;10.338;2023-03-14T06:24:23;7.20;83.00
76996;DHT22;65929;49.062;10.338;2023-03-14T06:25:24;7.20;82.90
76996;DHT22;65929;49.062;10.338;2023-03-14T06:26:25;7.20;82.50
76996;DHT22;65929;49.062;10.338;2023-03-14T06:27:26;7.20;82.20
76996;DHT22;65929;49.062;10.338;2023-03-14T06:28:27;7.20;82.40
76996;DHT22;65929;49.062;10.338;2023-03-14T06:29:28;7.20;82.40
76996;DHT22;65929;49.062;10.338;2023-03-14T06:30:29;7.20;82.70
76996;DHT22;65929;49.062;10.338;2023-03-14T06:31:30;7.20;82.80